createdAt,value
2019-03-08T00:04:23.308Z,10.81
2019-03-08T00:14:27.217Z,10.50
2019-03-08T00:24:32.290Z,10.44
2019-03-08T00:34:36.288Z,10.19
2019-03-08T00:44:40.220Z,10.38
2019-03-08T00:54:45.071Z,10.31
2019-03-08T01:04:50.270Z,10.19
2019-03-08T01:14:54.410Z,10.06
2019-03-08T01:24:58.239Z,10.00
2019-03-08T01:35:03.286Z,10.00
2019-03-08T01:45:07.387Z,9.75
2019-03-08T01:55:11.162Z,9.56
2019-03-08T02:05:16.287Z,9.50
2019-03-08T02:15:20.109Z,9.44
2019-03-08T02:25:25.116Z,9.25
2019-03-08T02:35:30.231Z,9.25
2019-03-08T02:45:34.237Z,9.19
2019-03-08T02:55:39.288Z,9.13
2019-03-08T03:05:44.238Z,8.75
2019-03-08T03:15:49.299Z,8.81
2019-03-08T03:25:53.254Z,8.44
2019-03-08T03:35:57.234Z,8.50
2019-03-08T03:46:02.003Z,8.19
2019-03-08T03:56:07.295Z,8.25
2019-03-08T04:06:11.160Z,8.00
2019-03-08T04:16:15.788Z,8.06
2019-03-08T04:26:20.301Z,7.81
2019-03-08T04:36:24.183Z,7.62
2019-03-08T04:46:29.167Z,7.69
2019-03-08T04:56:33.650Z,7.50
2019-03-08T05:06:37.276Z,7.56
2019-03-08T05:16:41.138Z,7.31
2019-03-08T05:26:45.647Z,7.31
2019-03-08T05:36:49.272Z,7.50
2019-03-08T05:46:53.115Z,7.56
2019-03-08T05:56:57.659Z,7.50
2019-03-08T06:07:01.251Z,7.81
2019-03-08T06:17:05.116Z,8.19
2019-03-08T06:27:09.659Z,8.31
2019-03-08T06:37:14.256Z,8.50
2019-03-08T06:47:18.103Z,8.94
2019-03-08T06:57:22.119Z,9.13
2019-03-08T07:07:26.090Z,9.44
2019-03-08T07:17:31.263Z,9.69
2019-03-08T07:27:46.101Z,9.75
2019-03-08T07:38:11.334Z,10.13
2019-03-08T07:48:32.221Z,10.38
2019-03-08T07:58:37.576Z,10.63
2019-03-08T08:08:51.393Z,10.81
2019-03-08T08:18:56.061Z,10.81
2019-03-08T08:29:12.236Z,11.25
2019-03-08T08:39:24.083Z,11.38
2019-03-08T08:49:33.460Z,11.94
2019-03-08T08:59:48.219Z,12.06
2019-03-08T09:09:54.342Z,12.13
2019-03-08T09:20:12.227Z,12.56
2019-03-08T09:30:18.355Z,12.75
2019-03-08T09:40:33.103Z,13.94
2019-03-08T10:01:36.369Z,13.69
2019-03-08T10:11:54.321Z,13.19
2019-03-08T10:21:59.564Z,13.19
2019-03-08T10:32:04.623Z,13.62
2019-03-08T10:42:09.933Z,13.56
2019-03-08T10:52:32.365Z,13.56
2019-03-08T11:02:38.389Z,14.63
2019-03-08T11:12:59.227Z,13.94
2019-03-08T11:23:17.326Z,13.75
2019-03-08T11:33:40.142Z,15.00
2019-03-08T11:43:56.403Z,13.94
2019-03-08T11:54:01.641Z,13.31
2019-03-08T12:04:07.122Z,12.88
2019-03-08T12:14:22.105Z,12.69
2019-03-08T12:24:30.937Z,12.50
2019-03-08T12:34:44.236Z,12.37
2019-03-08T12:44:56.146Z,12.56
2019-03-08T12:55:17.507Z,12.50
2019-03-08T13:05:40.098Z,12.63
2019-03-08T13:15:45.213Z,13.50
2019-03-08T13:25:50.246Z,13.50
2019-03-08T13:35:54.639Z,13.31
2019-03-08T13:45:59.241Z,13.13
2019-03-08T13:56:03.089Z,13.19
2019-03-08T14:06:07.132Z,12.75
2019-03-08T14:16:12.258Z,12.81
2019-03-08T14:26:16.104Z,13.00
2019-03-08T14:36:21.123Z,14.75
2019-03-08T14:46:28.357Z,15.00
2019-03-08T14:56:35.906Z,14.44
2019-03-08T15:06:38.244Z,13.00
2019-03-08T15:16:42.096Z,12.44
2019-03-08T15:26:46.647Z,12.13
2019-03-08T15:36:51.278Z,12.06
2019-03-08T15:46:55.798Z,11.81
2019-03-08T15:57:01.633Z,11.75
2019-03-08T16:07:07.284Z,11.63
2019-03-08T16:17:11.094Z,11.44
2019-03-08T16:27:16.238Z,11.56
2019-03-08T16:37:21.988Z,10.69
2019-03-08T16:47:44.162Z,9.69
2019-03-08T16:58:05.349Z,9.44
2019-03-08T17:08:20.069Z,9.06
2019-03-08T17:18:34.612Z,9.13
2019-03-08T17:28:46.631Z,9.25
2019-03-08T17:38:52.094Z,9.06
2019-03-08T17:48:58.397Z,9.00
2019-03-08T17:59:10.070Z,8.75
2019-03-08T18:09:29.255Z,8.88
2019-03-08T18:19:35.343Z,8.81
2019-03-08T18:29:40.532Z,8.63
2019-03-08T18:39:54.898Z,8.69
2019-03-08T18:50:18.500Z,8.56
2019-03-08T19:00:27.390Z,8.56
2019-03-08T19:10:35.448Z,8.38
2019-03-08T19:20:50.116Z,8.31
2019-03-08T19:30:56.413Z,8.19
2019-03-08T19:41:17.555Z,8.19
2019-03-08T19:51:26.115Z,8.19
2019-03-08T20:01:35.270Z,8.06
2019-03-08T20:11:40.593Z,7.81
2019-03-08T20:21:46.079Z,7.69
2019-03-08T20:31:58.389Z,7.75
2019-03-08T20:42:04.038Z,7.75
2019-03-08T20:52:09.224Z,7.50
2019-03-08T21:02:13.209Z,7.69
2019-03-08T21:12:17.128Z,7.62
2019-03-08T21:22:21.115Z,7.44
2019-03-08T21:32:25.674Z,7.37
2019-03-08T21:42:30.791Z,7.19
2019-03-08T21:52:35.328Z,6.94
2019-03-08T22:02:40.227Z,7.00
2019-03-08T22:12:44.579Z,7.00
2019-03-08T22:22:49.374Z,7.00
2019-03-08T22:32:53.217Z,6.75
2019-03-08T22:42:57.201Z,6.87
2019-03-08T22:53:01.314Z,6.81
2019-03-08T23:03:05.224Z,6.94
2019-03-08T23:13:09.217Z,6.62
2019-03-08T23:23:14.126Z,6.87
2019-03-08T23:33:19.260Z,6.56
2019-03-08T23:43:23.194Z,6.50
2019-03-08T23:53:27.234Z,6.44
